In Rescue
 
Open Full Screen Window  High Contrast Mode
Wind Gusting 15 knots
06
October 07, 2022 2:15 PM EDT
Weather Information
Wind Direction
  VRB °
Wind Speed
  06 kt (7 mph)
Wind Gust
  15 kt (17 mph)
Altimeter
30.24 in
Visibility
10 SM
Temperature
12° C
54° F
Dewpoint
04° C
39° F
Humidity
58%
1hr Rain Fall
00.00 in.
24hr Rain Fall
00.00 in.
Sky Condition
Broken @ 3,500 ft
VFR

METAR KI19 071815Z AUTO VRB06G15KT 10SM BKN035 12/04 A3024 RMK AO2

FAA Disclaimer: The data displayed is for advisory purposes only and is not to be used for flight planning or operations.